sensor_id;sensor_type;location;lat;lon;timestamp;temperature;humidity
35240;DHT22;21376;50.954;4.716;2024-02-23T00:00:34;5.80;99.90
35240;DHT22;21376;50.954;4.716;2024-02-23T00:03:03;6.00;99.90
35240;DHT22;21376;50.954;4.716;2024-02-23T00:05:28;5.80;99.90
35240;DHT22;21376;50.954;4.716;2024-02-23T00:07:57;5.90;99.90
35240;DHT22;21376;50.954;4.716;2024-02-23T00:10:26;5.90;99.90
35240;DHT22;21376;50.954;4.716;2024-02-23T00:12:55;5.90;99.90
35240;DHT22;21376;50.954;4.716;2024-02-23T00:15:24;5.90;99.90
35240;DHT22;21376;50.954;4.716;2024-02-23T00:17:54;5.80;99.90
35240;DHT22;21376;50.954;4.716;2024-02-23T00:20:23;5.70;99.90
35240;DHT22;21376;50.954;4.716;2024-02-23T00:22:52;5.70;99.90
35240;DHT22;21376;50.954;4.716;2024-02-23T00:25:23;5.70;99.90
35240;DHT22;21376;50.954;4.716;2024-02-23T00:27:52;5.70;99.90
35240;DHT22;21376;50.954;4.716;2024-02-23T00:30:19;5.70;99.90
35240;DHT22;21376;50.954;4.716;2024-02-23T00:32:48;5.70;99.90
35240;DHT22;21376;50.954;4.716;2024-02-23T00:35:14;5.70;99.90
35240;DHT22;21376;50.954;4.716;2024-02-23T00:37:40;5.70;99.90
35240;DHT22;21376;50.954;4.716;2024-02-23T00:40:09;5.80;99.90
35240;DHT22;21376;50.954;4.716;2024-02-23T00:42:39;5.70;99.90
35240;DHT22;21376;50.954;4.716;2024-02-23T00:47:56;5.70;99.90
35240;DHT22;21376;50.954;4.716;2024-02-23T00:50:28;5.60;99.90
35240;DHT22;21376;50.954;4.716;2024-02-23T00:52:57;5.50;99.90
35240;DHT22;21376;50.954;4.716;2024-02-23T00:55:26;5.70;99.90
35240;DHT22;21376;50.954;4.716;2024-02-23T00:57:58;5.60;99.90
35240;DHT22;21376;50.954;4.716;2024-02-23T01:00:27;5.50;99.90
35240;DHT22;21376;50.954;4.716;2024-02-23T01:02:57;5.60;99.90
35240;DHT22;21376;50.954;4.716;2024-02-23T01:05:28;5.70;99.90
35240;DHT22;21376;50.954;4.716;2024-02-23T01:07:57;5.70;99.90
35240;DHT22;21376;50.954;4.716;2024-02-23T01:10:26;5.70;99.90
35240;DHT22;21376;50.954;4.716;2024-02-23T01:12:55;5.60;99.90
35240;DHT22;21376;50.954;4.716;2024-02-23T01:15:27;5.60;99.90
35240;DHT22;21376;50.954;4.716;2024-02-23T01:17:56;5.40;99.90
35240;DHT22;21376;50.954;4.716;2024-02-23T01:20:25;5.40;99.90
35240;DHT22;21376;50.954;4.716;2024-02-23T01:22:54;5.40;99.90
35240;DHT22;21376;50.954;4.716;2024-02-23T01:25:23;5.40;99.90
35240;DHT22;21376;50.954;4.716;2024-02-23T01:31:11;5.40;99.90
35240;DHT22;21376;50.954;4.716;2024-02-23T01:33:40;5.40;99.90
35240;DHT22;21376;50.954;4.716;2024-02-23T01:48:00;5.30;99.90
35240;DHT22;21376;50.954;4.716;2024-02-23T01:50:37;5.20;99.90
35240;DHT22;21376;50.954;4.716;2024-02-23T01:53:11;5.20;99.90
35240;DHT22;21376;50.954;4.716;2024-02-23T01:55:41;5.20;99.90
35240;DHT22;21376;50.954;4.716;2024-02-23T01:58:11;5.20;99.90
35240;DHT22;21376;50.954;4.716;2024-02-23T02:00:45;5.20;99.90
35240;DHT22;21376;50.954;4.716;2024-02-23T02:05:42;5.30;99.90
35240;DHT22;21376;50.954;4.716;2024-02-23T02:08:13;5.30;99.90
35240;DHT22;21376;50.954;4.716;2024-02-23T02:10:42;5.20;99.90
35240;DHT22;21376;50.954;4.716;2024-02-23T02:13:14;5.40;99.90
35240;DHT22;21376;50.954;4.716;2024-02-23T02:15:43;5.30;99.90
35240;DHT22;21376;50.954;4.716;2024-02-23T02:18:13;5.30;99.90
35240;DHT22;21376;50.954;4.716;2024-02-23T02:20:58;5.20;99.90
35240;DHT22;21376;50.954;4.716;2024-02-23T02:23:27;5.20;99.90
35240;DHT22;21376;50.954;4.716;2024-02-23T02:25:56;5.30;99.90
35240;DHT22;21376;50.954;4.716;2024-02-23T02:31:52;5.30;99.90
35240;DHT22;21376;50.954;4.716;2024-02-23T02:34:21;5.30;99.90
35240;DHT22;21376;50.954;4.716;2024-02-23T02:36:47;5.20;99.90
35240;DHT22;21376;50.954;4.716;2024-02-23T02:39:13;5.10;99.90
35240;DHT22;21376;50.954;4.716;2024-02-23T02:41:47;5.10;99.90
35240;DHT22;21376;50.954;4.716;2024-02-23T02:44:19;5.10;99.90
35240;DHT22;21376;50.954;4.716;2024-02-23T02:46:48;5.20;99.90
35240;DHT22;21376;50.954;4.716;2024-02-23T02:49:17;5.30;99.90
35240;DHT22;21376;50.954;4.716;2024-02-23T02:51:49;5.50;99.90
35240;DHT22;21376;50.954;4.716;2024-02-23T02:54:18;5.20;99.90
35240;DHT22;21376;50.954;4.716;2024-02-23T02:56:47;5.40;99.90
35240;DHT22;21376;50.954;4.716;2024-02-23T02:59:14;5.60;99.90
35240;DHT22;21376;50.954;4.716;2024-02-23T03:04:51;5.60;99.90
35240;DHT22;21376;50.954;4.716;2024-02-23T03:07:20;5.60;99.90
35240;DHT22;21376;50.954;4.716;2024-02-23T03:13:15;5.70;99.90
35240;DHT22;21376;50.954;4.716;2024-02-23T03:15:41;5.70;99.90
35240;DHT22;21376;50.954;4.716;2024-02-23T03:18:10;5.70;99.90
35240;DHT22;21376;50.954;4.716;2024-02-23T03:20:39;5.80;99.90
35240;DHT22;21376;50.954;4.716;2024-02-23T03:23:08;5.80;99.90
35240;DHT22;21376;50.954;4.716;2024-02-23T03:25:36;5.80;99.90
35240;DHT22;21376;50.954;4.716;2024-02-23T03:28:05;5.80;99.90
35240;DHT22;21376;50.954;4.716;2024-02-23T03:30:30;5.80;99.90
35240;DHT22;21376;50.954;4.716;2024-02-23T03:32:59;5.80;99.90
35240;DHT22;21376;50.954;4.716;2024-02-23T03:35:26;5.90;99.90
35240;DHT22;21376;50.954;4.716;2024-02-23T04:00:57;5.70;99.90
35240;DHT22;21376;50.954;4.716;2024-02-23T04:03:26;5.90;99.90
35240;DHT22;21376;50.954;4.716;2024-02-23T04:06:21;5.70;99.90
35240;DHT22;21376;50.954;4.716;2024-02-23T04:08:50;5.80;99.90
35240;DHT22;21376;50.954;4.716;2024-02-23T04:11:17;5.80;99.90
35240;DHT22;21376;50.954;4.716;2024-02-23T04:13:43;6.00;99.90
35240;DHT22;21376;50.954;4.716;2024-02-23T04:16:15;6.00;99.90
35240;DHT22;21376;50.954;4.716;2024-02-23T04:18:42;6.10;99.90
35240;DHT22;21376;50.954;4.716;2024-02-23T04:21:08;6.10;99.90
35240;DHT22;21376;50.954;4.716;2024-02-23T04:23:39;6.10;99.90
35240;DHT22;21376;50.954;4.716;2024-02-23T04:26:08;6.10;99.90
35240;DHT22;21376;50.954;4.716;2024-02-23T04:28:37;6.10;99.90
35240;DHT22;21376;50.954;4.716;2024-02-23T04:31:07;6.10;99.90
35240;DHT22;21376;50.954;4.716;2024-02-23T04:33:37;6.10;99.90
35240;DHT22;21376;50.954;4.716;2024-02-23T04:36:06;6.20;99.90
35240;DHT22;21376;50.954;4.716;2024-02-23T04:38:35;6.10;99.90
35240;DHT22;21376;50.954;4.716;2024-02-23T04:41:04;6.10;99.90
35240;DHT22;21376;50.954;4.716;2024-02-23T04:43:36;6.10;99.90
35240;DHT22;21376;50.954;4.716;2024-02-23T04:46:08;6.00;99.90
35240;DHT22;21376;50.954;4.716;2024-02-23T04:48:33;6.10;99.90
35240;DHT22;21376;50.954;4.716;2024-02-23T04:51:14;6.00;99.90
35240;DHT22;21376;50.954;4.716;2024-02-23T04:53:42;6.10;99.90
35240;DHT22;21376;50.954;4.716;2024-02-23T04:56:11;6.30;99.90
35240;DHT22;21376;50.954;4.716;2024-02-23T04:58:37;6.10;99.90
35240;DHT22;21376;50.954;4.716;2024-02-23T05:01:09;6.10;99.90
35240;DHT22;21376;50.954;4.716;2024-02-23T05:03:39;6.20;99.90
35240;DHT22;21376;50.954;4.716;2024-02-23T05:06:11;6.20;99.90
35240;DHT22;21376;50.954;4.716;2024-02-23T05:08:41;6.20;99.90
35240;DHT22;21376;50.954;4.716;2024-02-23T05:11:10;6.20;99.90
35240;DHT22;21376;50.954;4.716;2024-02-23T05:13:36;6.20;99.90
35240;DHT22;21376;50.954;4.716;2024-02-23T05:16:03;6.20;99.90
35240;DHT22;21376;50.954;4.716;2024-02-23T05:18:32;6.20;99.90
35240;DHT22;21376;50.954;4.716;2024-02-23T05:21:35;6.30;99.90
35240;DHT22;21376;50.954;4.716;2024-02-23T05:24:04;6.20;99.90
35240;DHT22;21376;50.954;4.716;2024-02-23T05:26:37;6.10;99.90
35240;DHT22;21376;50.954;4.716;2024-02-23T05:29:08;6.20;99.90
35240;DHT22;21376;50.954;4.716;2024-02-23T05:31:52;6.20;99.90
35240;DHT22;21376;50.954;4.716;2024-02-23T05:34:21;6.30;99.90
35240;DHT22;21376;50.954;4.716;2024-02-23T05:37:05;6.10;99.90
35240;DHT22;21376;50.954;4.716;2024-02-23T05:39:34;6.30;99.90
35240;DHT22;21376;50.954;4.716;2024-02-23T05:42:01;6.20;99.90
35240;DHT22;21376;50.954;4.716;2024-02-23T05:44:30;6.20;99.90
35240;DHT22;21376;50.954;4.716;2024-02-23T05:47:05;6.20;99.90
35240;DHT22;21376;50.954;4.716;2024-02-23T05:49:33;6.20;99.90
35240;DHT22;21376;50.954;4.716;2024-02-23T05:52:03;6.20;99.90
35240;DHT22;21376;50.954;4.716;2024-02-23T05:54:35;6.20;99.90
35240;DHT22;21376;50.954;4.716;2024-02-23T05:57:04;6.20;99.90
35240;DHT22;21376;50.954;4.716;2024-02-23T05:59:30;6.20;99.90
35240;DHT22;21376;50.954;4.716;2024-02-23T06:01:59;6.20;99.90
35240;DHT22;21376;50.954;4.716;2024-02-23T06:04:51;6.30;99.90
35240;DHT22;21376;50.954;4.716;2024-02-23T06:07:20;6.20;99.90
35240;DHT22;21376;50.954;4.716;2024-02-23T06:09:55;6.30;99.90
35240;DHT22;21376;50.954;4.716;2024-02-23T06:12:22;6.10;99.90
35240;DHT22;21376;50.954;4.716;2024-02-23T06:14:51;6.20;99.90
35240;DHT22;21376;50.954;4.716;2024-02-23T06:17:18;6.30;99.90
35240;DHT22;21376;50.954;4.716;2024-02-23T06:19:47;6.30;99.90
35240;DHT22;21376;50.954;4.716;2024-02-23T06:22:18;6.30;99.90
35240;DHT22;21376;50.954;4.716;2024-02-23T06:24:47;6.30;99.90
35240;DHT22;21376;50.954;4.716;2024-02-23T06:27:16;6.30;99.90
35240;DHT22;21376;50.954;4.716;2024-02-23T06:29:42;6.30;99.90
35240;DHT22;21376;50.954;4.716;2024-02-23T06:32:11;6.30;99.90
35240;DHT22;21376;50.954;4.716;2024-02-23T06:34:40;6.30;99.90
35240;DHT22;21376;50.954;4.716;2024-02-23T06:37:08;6.30;99.90
35240;DHT22;21376;50.954;4.716;2024-02-23T06:39:37;6.30;99.90
35240;DHT22;21376;50.954;4.716;2024-02-23T06:42:06;6.30;99.90
35240;DHT22;21376;50.954;4.716;2024-02-23T06:44:59;6.30;99.90
35240;DHT22;21376;50.954;4.716;2024-02-23T06:47:25;6.40;99.90
35240;DHT22;21376;50.954;4.716;2024-02-23T06:49:53;6.40;99.90
35240;DHT22;21376;50.954;4.716;2024-02-23T06:52:25;6.40;99.90
35240;DHT22;21376;50.954;4.716;2024-02-23T06:54:54;6.40;99.90
35240;DHT22;21376;50.954;4.716;2024-02-23T06:57:23;6.40;99.90
35240;DHT22;21376;50.954;4.716;2024-02-23T06:59:51;6.50;99.90
35240;DHT22;21376;50.954;4.716;2024-02-23T07:02:20;6.40;99.90
35240;DHT22;21376;50.954;4.716;2024-02-23T07:05:13;6.40;99.90
35240;DHT22;21376;50.954;4.716;2024-02-23T07:07:42;6.50;99.90
35240;DHT22;21376;50.954;4.716;2024-02-23T07:10:09;6.50;99.90
35240;DHT22;21376;50.954;4.716;2024-02-23T07:12:39;6.50;99.90
35240;DHT22;21376;50.954;4.716;2024-02-23T07:15:06;6.50;99.90
35240;DHT22;21376;50.954;4.716;2024-02-23T07:17:34;6.60;99.90
35240;DHT22;21376;50.954;4.716;2024-02-23T07:20:23;6.60;99.90
35240;DHT22;21376;50.954;4.716;2024-02-23T07:22:49;6.60;99.90
35240;DHT22;21376;50.954;4.716;2024-02-23T07:28:38;6.60;99.90
35240;DHT22;21376;50.954;4.716;2024-02-23T07:31:07;6.60;99.90
35240;DHT22;21376;50.954;4.716;2024-02-23T07:33:38;6.60;99.90
35240;DHT22;21376;50.954;4.716;2024-02-23T07:36:13;6.70;99.90
35240;DHT22;21376;50.954;4.716;2024-02-23T07:38:45;6.70;99.90
35240;DHT22;21376;50.954;4.716;2024-02-23T07:41:12;6.70;99.90
35240;DHT22;21376;50.954;4.716;2024-02-23T07:43:58;6.70;99.90
35240;DHT22;21376;50.954;4.716;2024-02-23T07:49:13;6.70;99.90
35240;DHT22;21376;50.954;4.716;2024-02-23T07:51:39;6.80;99.90
35240;DHT22;21376;50.954;4.716;2024-02-23T07:54:05;6.70;99.90
35240;DHT22;21376;50.954;4.716;2024-02-23T07:56:32;6.70;99.90
35240;DHT22;21376;50.954;4.716;2024-02-23T07:58:58;6.70;99.90
35240;DHT22;21376;50.954;4.716;2024-02-23T08:01:25;6.60;99.90
35240;DHT22;21376;50.954;4.716;2024-02-23T08:03:57;6.80;99.90
35240;DHT22;21376;50.954;4.716;2024-02-23T08:06:26;7.20;99.90
35240;DHT22;21376;50.954;4.716;2024-02-23T08:08:52;7.00;99.90
35240;DHT22;21376;50.954;4.716;2024-02-23T08:11:22;7.20;99.90
35240;DHT22;21376;50.954;4.716;2024-02-23T08:13:51;7.20;99.90
35240;DHT22;21376;50.954;4.716;2024-02-23T08:16:20;7.20;99.90
35240;DHT22;21376;50.954;4.716;2024-02-23T08:18:48;7.10;99.90
35240;DHT22;21376;50.954;4.716;2024-02-23T08:21:17;7.20;99.90
35240;DHT22;21376;50.954;4.716;2024-02-23T08:24:01;7.10;99.90
35240;DHT22;21376;50.954;4.716;2024-02-23T08:26:31;7.10;99.90
35240;DHT22;21376;50.954;4.716;2024-02-23T08:29:25;7.20;99.90
35240;DHT22;21376;50.954;4.716;2024-02-23T08:32:29;7.10;99.90
35240;DHT22;21376;50.954;4.716;2024-02-23T08:35:07;6.90;99.90
35240;DHT22;21376;50.954;4.716;2024-02-23T08:37:37;6.70;99.90
35240;DHT22;21376;50.954;4.716;2024-02-23T08:40:08;6.60;99.90
35240;DHT22;21376;50.954;4.716;2024-02-23T08:42:37;6.60;99.90
35240;DHT22;21376;50.954;4.716;2024-02-23T08:45:06;6.60;99.90
35240;DHT22;21376;50.954;4.716;2024-02-23T08:47:32;6.70;99.90
35240;DHT22;21376;50.954;4.716;2024-02-23T08:50:04;6.60;99.90
35240;DHT22;21376;50.954;4.716;2024-02-23T08:52:33;6.50;99.90
35240;DHT22;21376;50.954;4.716;2024-02-23T08:55:01;6.40;99.90
35240;DHT22;21376;50.954;4.716;2024-02-23T08:57:30;6.30;99.90
35240;DHT22;21376;50.954;4.716;2024-02-23T08:59:59;6.20;99.90
35240;DHT22;21376;50.954;4.716;2024-02-23T09:02:36;6.20;99.90
35240;DHT22;21376;50.954;4.716;2024-02-23T09:05:06;6.30;99.90
35240;DHT22;21376;50.954;4.716;2024-02-23T09:07:32;6.50;99.90
35240;DHT22;21376;50.954;4.716;2024-02-23T09:10:01;6.50;99.90
35240;DHT22;21376;50.954;4.716;2024-02-23T09:12:30;6.50;99.90
35240;DHT22;21376;50.954;4.716;2024-02-23T09:14:58;6.20;99.90
35240;DHT22;21376;50.954;4.716;2024-02-23T09:17:27;6.20;99.90
35240;DHT22;21376;50.954;4.716;2024-02-23T09:19:56;6.20;99.90
35240;DHT22;21376;50.954;4.716;2024-02-23T09:22:22;6.10;99.90
35240;DHT22;21376;50.954;4.716;2024-02-23T09:24:51;6.00;99.90
35240;DHT22;21376;50.954;4.716;2024-02-23T09:27:23;6.20;99.90
35240;DHT22;21376;50.954;4.716;2024-02-23T09:29:54;6.40;99.90
35240;DHT22;21376;50.954;4.716;2024-02-23T09:32:23;6.50;99.90
35240;DHT22;21376;50.954;4.716;2024-02-23T09:34:55;6.50;99.90
35240;DHT22;21376;50.954;4.716;2024-02-23T09:37:23;6.60;99.90
35240;DHT22;21376;50.954;4.716;2024-02-23T09:48:13;6.60;99.90
35240;DHT22;21376;50.954;4.716;2024-02-23T09:50:43;6.60;99.90
35240;DHT22;21376;50.954;4.716;2024-02-23T09:53:13;6.80;99.90
35240;DHT22;21376;50.954;4.716;2024-02-23T09:55:39;7.30;99.90
35240;DHT22;21376;50.954;4.716;2024-02-23T09:58:37;7.70;99.90
35240;DHT22;21376;50.954;4.716;2024-02-23T10:01:14;8.00;99.90
35240;DHT22;21376;50.954;4.716;2024-02-23T10:03:46;8.10;99.90
35240;DHT22;21376;50.954;4.716;2024-02-23T10:06:14;8.80;99.90
35240;DHT22;21376;50.954;4.716;2024-02-23T10:08:42;10.20;99.90
35240;DHT22;21376;50.954;4.716;2024-02-23T10:11:11;10.40;99.90
35240;DHT22;21376;50.954;4.716;2024-02-23T10:13:40;11.20;99.90
35240;DHT22;21376;50.954;4.716;2024-02-23T10:16:09;11.20;99.90
35240;DHT22;21376;50.954;4.716;2024-02-23T10:18:38;11.00;99.90
35240;DHT22;21376;50.954;4.716;2024-02-23T10:21:07;10.50;99.90
35240;DHT22;21376;50.954;4.716;2024-02-23T10:23:36;10.30;99.90
35240;DHT22;21376;50.954;4.716;2024-02-23T10:26:18;10.30;99.90
35240;DHT22;21376;50.954;4.716;2024-02-23T10:28:49;10.50;99.90
35240;DHT22;21376;50.954;4.716;2024-02-23T10:31:24;10.10;99.90
35240;DHT22;21376;50.954;4.716;2024-02-23T10:33:54;10.80;99.90
35240;DHT22;21376;50.954;4.716;2024-02-23T10:36:27;10.40;99.90
35240;DHT22;21376;50.954;4.716;2024-02-23T10:39:02;10.20;99.90
35240;DHT22;21376;50.954;4.716;2024-02-23T10:41:34;10.90;99.90
35240;DHT22;21376;50.954;4.716;2024-02-23T10:44:05;12.50;99.90
35240;DHT22;21376;50.954;4.716;2024-02-23T11:04:26;10.60;99.90
35240;DHT22;21376;50.954;4.716;2024-02-23T11:06:59;11.40;99.90
35240;DHT22;21376;50.954;4.716;2024-02-23T11:09:33;11.60;99.90
35240;DHT22;21376;50.954;4.716;2024-02-23T11:12:04;11.50;99.90
35240;DHT22;21376;50.954;4.716;2024-02-23T11:17:05;11.40;99.90
35240;DHT22;21376;50.954;4.716;2024-02-23T11:19:38;10.90;99.90
35240;DHT22;21376;50.954;4.716;2024-02-23T11:24:42;10.20;99.90
35240;DHT22;21376;50.954;4.716;2024-02-23T11:27:14;10.10;99.90
35240;DHT22;21376;50.954;4.716;2024-02-23T11:30:14;10.10;99.90
35240;DHT22;21376;50.954;4.716;2024-02-23T11:32:48;10.00;99.90
35240;DHT22;21376;50.954;4.716;2024-02-23T11:35:17;9.70;99.90
35240;DHT22;21376;50.954;4.716;2024-02-23T11:37:59;9.80;99.90
35240;DHT22;21376;50.954;4.716;2024-02-23T11:40:35;9.60;99.90
35240;DHT22;21376;50.954;4.716;2024-02-23T11:43:04;9.60;99.90
35240;DHT22;21376;50.954;4.716;2024-02-23T11:45:34;9.50;99.90
35240;DHT22;21376;50.954;4.716;2024-02-23T11:48:04;9.60;99.90
35240;DHT22;21376;50.954;4.716;2024-02-23T11:50:33;9.50;99.90
35240;DHT22;21376;50.954;4.716;2024-02-23T11:53:02;9.40;99.90
35240;DHT22;21376;50.954;4.716;2024-02-23T11:55:31;9.30;99.90
35240;DHT22;21376;50.954;4.716;2024-02-23T11:58:00;9.60;99.90
35240;DHT22;21376;50.954;4.716;2024-02-23T12:00:29;9.40;99.90
35240;DHT22;21376;50.954;4.716;2024-02-23T12:29:31;10.50;99.90
35240;DHT22;21376;50.954;4.716;2024-02-23T12:32:06;10.70;99.90
35240;DHT22;21376;50.954;4.716;2024-02-23T12:34:35;11.20;99.90
35240;DHT22;21376;50.954;4.716;2024-02-23T12:37:04;11.60;99.90
35240;DHT22;21376;50.954;4.716;2024-02-23T12:39:34;11.80;99.90
35240;DHT22;21376;50.954;4.716;2024-02-23T12:42:02;12.00;99.90
35240;DHT22;21376;50.954;4.716;2024-02-23T12:44:34;12.30;99.90
35240;DHT22;21376;50.954;4.716;2024-02-23T12:47:03;12.90;99.90
35240;DHT22;21376;50.954;4.716;2024-02-23T12:56:12;12.40;99.90
35240;DHT22;21376;50.954;4.716;2024-02-23T12:58:43;12.10;99.90
35240;DHT22;21376;50.954;4.716;2024-02-23T13:01:10;12.10;99.90
35240;DHT22;21376;50.954;4.716;2024-02-23T13:03:47;11.80;99.90
35240;DHT22;21376;50.954;4.716;2024-02-23T13:09:41;11.60;99.90
35240;DHT22;21376;50.954;4.716;2024-02-23T13:12:10;11.40;99.90
35240;DHT22;21376;50.954;4.716;2024-02-23T13:14:36;11.80;99.90
35240;DHT22;21376;50.954;4.716;2024-02-23T13:17:02;11.70;99.90
35240;DHT22;21376;50.954;4.716;2024-02-23T13:19:29;11.30;99.90
35240;DHT22;21376;50.954;4.716;2024-02-23T13:21:56;11.10;99.90
35240;DHT22;21376;50.954;4.716;2024-02-23T13:24:22;11.30;99.90
35240;DHT22;21376;50.954;4.716;2024-02-23T13:26:50;11.10;99.90
35240;DHT22;21376;50.954;4.716;2024-02-23T13:29:18;11.20;99.90
35240;DHT22;21376;50.954;4.716;2024-02-23T13:31:47;11.10;99.90
35240;DHT22;21376;50.954;4.716;2024-02-23T13:34:16;10.80;99.90
35240;DHT22;21376;50.954;4.716;2024-02-23T13:36:53;10.60;99.90
35240;DHT22;21376;50.954;4.716;2024-02-23T13:39:22;10.50;99.90
35240;DHT22;21376;50.954;4.716;2024-02-23T13:41:47;10.50;99.90
35240;DHT22;21376;50.954;4.716;2024-02-23T13:44:16;10.70;99.90
35240;DHT22;21376;50.954;4.716;2024-02-23T13:46:48;10.70;99.90
35240;DHT22;21376;50.954;4.716;2024-02-23T13:49:17;10.50;99.90
35240;DHT22;21376;50.954;4.716;2024-02-23T13:51:46;10.40;99.90
35240;DHT22;21376;50.954;4.716;2024-02-23T13:54:15;10.40;99.90
35240;DHT22;21376;50.954;4.716;2024-02-23T13:56:44;10.40;99.90
35240;DHT22;21376;50.954;4.716;2024-02-23T14:05:38;10.80;99.90
35240;DHT22;21376;50.954;4.716;2024-02-23T14:08:16;10.50;99.90
35240;DHT22;21376;50.954;4.716;2024-02-23T14:10:53;10.40;99.90
35240;DHT22;21376;50.954;4.716;2024-02-23T14:13:22;10.20;99.90
35240;DHT22;21376;50.954;4.716;2024-02-23T14:15:48;10.40;99.90
35240;DHT22;21376;50.954;4.716;2024-02-23T14:20:44;10.30;99.90
35240;DHT22;21376;50.954;4.716;2024-02-23T14:23:13;9.80;99.90
35240;DHT22;21376;50.954;4.716;2024-02-23T14:25:41;9.70;99.90
35240;DHT22;21376;50.954;4.716;2024-02-23T14:28:09;10.00;99.90
35240;DHT22;21376;50.954;4.716;2024-02-23T14:30:38;9.80;99.90
35240;DHT22;21376;50.954;4.716;2024-02-23T14:33:08;9.70;99.90
35240;DHT22;21376;50.954;4.716;2024-02-23T14:35:36;9.50;99.90
35240;DHT22;21376;50.954;4.716;2024-02-23T14:38:02;9.50;99.90
35240;DHT22;21376;50.954;4.716;2024-02-23T14:40:28;9.70;99.90
35240;DHT22;21376;50.954;4.716;2024-02-23T14:42:56;9.60;99.90
35240;DHT22;21376;50.954;4.716;2024-02-23T14:45:25;9.50;99.90
35240;DHT22;21376;50.954;4.716;2024-02-23T14:47:54;9.50;99.90
35240;DHT22;21376;50.954;4.716;2024-02-23T14:50:44;9.50;99.90
35240;DHT22;21376;50.954;4.716;2024-02-23T14:53:10;9.70;99.90
35240;DHT22;21376;50.954;4.716;2024-02-23T14:55:38;9.80;99.90
35240;DHT22;21376;50.954;4.716;2024-02-23T14:58:04;10.00;99.90
35240;DHT22;21376;50.954;4.716;2024-02-23T15:00:30;10.10;99.90
35240;DHT22;21376;50.954;4.716;2024-02-23T15:02:56;10.10;99.90
35240;DHT22;21376;50.954;4.716;2024-02-23T15:05:24;10.00;99.90
35240;DHT22;21376;50.954;4.716;2024-02-23T15:07:50;10.00;99.90
35240;DHT22;21376;50.954;4.716;2024-02-23T15:10:17;9.70;99.90
35240;DHT22;21376;50.954;4.716;2024-02-23T15:12:46;9.70;99.90
35240;DHT22;21376;50.954;4.716;2024-02-23T15:15:21;9.70;99.90
35240;DHT22;21376;50.954;4.716;2024-02-23T15:17:56;9.70;99.90
35240;DHT22;21376;50.954;4.716;2024-02-23T15:20:25;9.80;99.90
35240;DHT22;21376;50.954;4.716;2024-02-23T15:22:55;9.80;99.90
35240;DHT22;21376;50.954;4.716;2024-02-23T15:25:35;10.10;99.90
35240;DHT22;21376;50.954;4.716;2024-02-23T15:28:04;10.20;99.90
35240;DHT22;21376;50.954;4.716;2024-02-23T15:30:30;10.10;99.90
35240;DHT22;21376;50.954;4.716;2024-02-23T15:33:34;10.00;99.90
35240;DHT22;21376;50.954;4.716;2024-02-23T15:36:10;10.10;99.90
35240;DHT22;21376;50.954;4.716;2024-02-23T15:38:38;9.90;99.90
35240;DHT22;21376;50.954;4.716;2024-02-23T15:41:07;9.90;99.90
35240;DHT22;21376;50.954;4.716;2024-02-23T15:43:35;9.80;99.90
35240;DHT22;21376;50.954;4.716;2024-02-23T15:46:04;9.80;99.90
35240;DHT22;21376;50.954;4.716;2024-02-23T15:48:30;9.60;99.90
35240;DHT22;21376;50.954;4.716;2024-02-23T15:51:02;9.50;99.90
35240;DHT22;21376;50.954;4.716;2024-02-23T15:53:40;9.30;99.90
35240;DHT22;21376;50.954;4.716;2024-02-23T15:56:26;9.20;99.90
35240;DHT22;21376;50.954;4.716;2024-02-23T15:58:54;9.10;99.90
35240;DHT22;21376;50.954;4.716;2024-02-23T16:01:23;9.00;99.90
35240;DHT22;21376;50.954;4.716;2024-02-23T16:03:54;9.00;99.90
35240;DHT22;21376;50.954;4.716;2024-02-23T16:06:23;9.00;99.90
35240;DHT22;21376;50.954;4.716;2024-02-23T16:08:51;8.80;99.90
35240;DHT22;21376;50.954;4.716;2024-02-23T16:11:19;8.70;99.90
35240;DHT22;21376;50.954;4.716;2024-02-23T16:14:03;8.60;99.90
35240;DHT22;21376;50.954;4.716;2024-02-23T16:16:33;8.50;99.90
35240;DHT22;21376;50.954;4.716;2024-02-23T16:19:25;8.50;99.90
35240;DHT22;21376;50.954;4.716;2024-02-23T16:21:56;8.60;99.90
35240;DHT22;21376;50.954;4.716;2024-02-23T16:24:24;8.70;99.90
35240;DHT22;21376;50.954;4.716;2024-02-23T16:26:53;8.70;99.90
35240;DHT22;21376;50.954;4.716;2024-02-23T16:29:22;8.80;99.90
35240;DHT22;21376;50.954;4.716;2024-02-23T16:31:51;8.90;99.90
35240;DHT22;21376;50.954;4.716;2024-02-23T16:34:20;8.90;99.90
35240;DHT22;21376;50.954;4.716;2024-02-23T16:37:08;8.80;99.90
35240;DHT22;21376;50.954;4.716;2024-02-23T16:39:37;8.70;99.90
35240;DHT22;21376;50.954;4.716;2024-02-23T16:42:09;8.60;99.90
35240;DHT22;21376;50.954;4.716;2024-02-23T16:44:38;8.60;99.90
35240;DHT22;21376;50.954;4.716;2024-02-23T16:47:07;8.50;99.90
35240;DHT22;21376;50.954;4.716;2024-02-23T16:49:32;8.50;99.90
35240;DHT22;21376;50.954;4.716;2024-02-23T16:51:59;8.50;99.90
35240;DHT22;21376;50.954;4.716;2024-02-23T16:54:25;8.50;99.90
35240;DHT22;21376;50.954;4.716;2024-02-23T16:56:53;8.40;99.90
35240;DHT22;21376;50.954;4.716;2024-02-23T16:59:29;8.40;99.90
35240;DHT22;21376;50.954;4.716;2024-02-23T17:01:57;8.30;99.90
35240;DHT22;21376;50.954;4.716;2024-02-23T17:04:24;8.20;99.90
35240;DHT22;21376;50.954;4.716;2024-02-23T17:06:52;8.20;99.90
35240;DHT22;21376;50.954;4.716;2024-02-23T17:09:21;8.20;99.90
35240;DHT22;21376;50.954;4.716;2024-02-23T17:11:49;8.20;99.90
35240;DHT22;21376;50.954;4.716;2024-02-23T17:14:15;8.30;99.90
35240;DHT22;21376;50.954;4.716;2024-02-23T17:16:44;8.20;99.90
35240;DHT22;21376;50.954;4.716;2024-02-23T17:19:12;8.20;99.90
35240;DHT22;21376;50.954;4.716;2024-02-23T17:21:42;8.10;99.90
35240;DHT22;21376;50.954;4.716;2024-02-23T17:24:14;8.10;99.90
35240;DHT22;21376;50.954;4.716;2024-02-23T17:26:43;8.10;99.90
35240;DHT22;21376;50.954;4.716;2024-02-23T17:29:12;8.00;99.90
35240;DHT22;21376;50.954;4.716;2024-02-23T17:31:41;8.00;99.90
35240;DHT22;21376;50.954;4.716;2024-02-23T17:34:11;7.90;99.90
35240;DHT22;21376;50.954;4.716;2024-02-23T17:36:44;7.80;99.90
35240;DHT22;21376;50.954;4.716;2024-02-23T17:39:19;7.80;99.90
35240;DHT22;21376;50.954;4.716;2024-02-23T17:41:48;8.00;99.90
35240;DHT22;21376;50.954;4.716;2024-02-23T17:44:17;8.10;99.90
35240;DHT22;21376;50.954;4.716;2024-02-23T17:46:46;8.10;99.90
35240;DHT22;21376;50.954;4.716;2024-02-23T17:49:16;8.00;99.90
35240;DHT22;21376;50.954;4.716;2024-02-23T17:51:55;8.10;99.90
35240;DHT22;21376;50.954;4.716;2024-02-23T17:54:24;8.10;99.90
35240;DHT22;21376;50.954;4.716;2024-02-23T17:56:51;8.10;99.90
35240;DHT22;21376;50.954;4.716;2024-02-23T17:59:24;8.10;99.90
35240;DHT22;21376;50.954;4.716;2024-02-23T18:01:52;8.10;99.90
35240;DHT22;21376;50.954;4.716;2024-02-23T18:04:19;8.10;99.90
35240;DHT22;21376;50.954;4.716;2024-02-23T18:13:37;7.90;99.90
35240;DHT22;21376;50.954;4.716;2024-02-23T18:16:11;8.00;99.90
35240;DHT22;21376;50.954;4.716;2024-02-23T18:18:42;7.90;99.90
35240;DHT22;21376;50.954;4.716;2024-02-23T18:21:13;7.90;99.90
35240;DHT22;21376;50.954;4.716;2024-02-23T18:23:45;7.90;99.90
35240;DHT22;21376;50.954;4.716;2024-02-23T18:26:21;7.90;99.90